• Join FlightAware (Why Join?)
  • Login
  • US Flag 
01:35PM EDT


 

Airport Tracker/Info


-or-


 

Live Flight TrackerFlight Track Log ✈ TAP1010 ✈ 24-Apr-2012 ✈ LPPT / LIS - LEMD / MAD

Flight Track Log - Related Links

Times and Time Zones

All times are in EDT time to prevent confusion due to time zone crossing. See the TAP1010 flight status page for this flight to view local times or setup timezone preferences in your user account.

Time Position Orientation Groundspeed Altitude Reporting Facility
EDT Latitude Longitude Course Direction KTS MPH feet Rate Location/Type
02:35AM 38.8360 -8.9743 67° East  Level Estimated
02:36AM 38.8796 -8.8449 67° East  Level Estimated
02:37AM 38.9230 -8.7153 67° East  Level Estimated
02:38AM 38.9663 -8.5856 67° East  Level Estimated
02:39AM 39.0095 -8.4557 67° East  Level Estimated
02:40AM 39.0525 -8.3256 67° East  Level Estimated
02:41AM 39.0953 -8.1954 67° East  Level Estimated
02:42AM 39.1381 -8.0650 67° East  Level Estimated
02:43AM 39.1806 -7.9345 67° East  Level Estimated
02:44AM 39.2230 -7.8038 67° East  Level Estimated
02:45AM 39.2653 -7.6729 67° East  Level Estimated
02:46AM 39.3074 -7.5419 67° East  Level Estimated
02:47AM 39.3494 -7.4107 68° East  Level Estimated
02:48AM 39.3913 -7.2794 68° East  Level Estimated
02:49AM 39.4330 -7.1479 68° East  Level Estimated
02:50AM 39.4745 -7.0162 68° East  Level Estimated
02:51AM 39.5159 -6.8844 68° East  Level Estimated
02:52AM 39.5571 -6.7525 68° East  Level Estimated
02:53AM 39.5982 -6.6203 68° East  Level Estimated
02:54AM 39.6392 -6.4881 68° East  Level Estimated
02:55AM 39.6800 -6.3556 68° East  Level Estimated
02:56AM 39.7206 -6.2231 68° East  Level Estimated
02:57AM 39.7611 -6.0903 68° East  Level Estimated
02:58AM 39.8014 -5.9574 68° East  Level Estimated
02:59AM 39.8416 -5.8244 69° East  Level Estimated
03:00AM 39.8817 -5.6912 69° East  Level Estimated
03:01AM 39.9216 -5.5578 69° East  Level Estimated
03:02AM 39.9613 -5.4243 69° East  Level Estimated
03:03AM 40.0009 -5.2906 69° East  Level Estimated
03:04AM 40.0403 -5.1568 69° East  Level Estimated
03:05AM 40.0796 -5.0228 69° East  Level Estimated
03:06AM 40.1187 -4.8887 69° East  Level Estimated
03:07AM 40.1576 -4.7544 69° East  Level Estimated
03:08AM 40.1965 -4.6199 69° East  Level Estimated
03:09AM 40.2351 -4.4853 69° East  Level Estimated
03:10AM 40.2736 -4.3506 70° East  Level Estimated
03:11AM 40.3120 -4.2157 70° East  Level Estimated
03:12AM 40.3501 -4.0806 70° East  Level Estimated
03:13AM 40.3881 -3.9454 70° East  Level Estimated
03:14AM 40.4260 -3.8100 70° East  Level Estimated
03:15AM 40.4637 -3.6745 70° East  Level Estimated
03:16AM 40.5013 -3.5388 250° West  Level Estimated
03:17AM 40.4637 -3.6745 70° East  Level Estimated
03:18AM 40.5013 -3.5388 250° West  Level Estimated
03:19AM 40.4637 -3.6745 70° East  Level Estimated
03:20AM 40.5013 -3.5388 250° West  Level Estimated
03:21AM 40.4637 -3.6745 70° East  Level Estimated
03:22AM 40.5013 -3.5388 250° West  Level Estimated
03:23AM 40.4637 -3.6745 70° East  Level Estimated
03:24AM 40.5013 -3.5388 250° West  Level Estimated
03:25AM 40.4637 -3.6745 250° West  Level Estimated